createdAt,value
2022-11-15T00:00:03.774Z,122
2022-11-15T00:01:12.955Z,135
2022-11-15T00:02:22.105Z,106
2022-11-15T00:03:31.286Z,151
2022-11-15T00:04:39.478Z,118
2022-11-15T00:05:48.640Z,135
2022-11-15T00:06:57.805Z,129
2022-11-15T00:08:06.986Z,134
2022-11-15T00:09:16.175Z,120
2022-11-15T00:10:25.329Z,135
2022-11-15T00:11:34.563Z,130
2022-11-15T00:12:43.677Z,118
2022-11-15T00:13:51.864Z,119
2022-11-15T00:15:00.075Z,115
2022-11-15T00:16:09.285Z,146
2022-11-15T00:17:18.433Z,131
2022-11-15T00:18:27.618Z,120
2022-11-15T00:19:35.763Z,112
2022-11-15T00:20:43.971Z,121
2022-11-15T00:21:53.139Z,100
2022-11-15T00:23:02.408Z,102
2022-11-15T00:24:11.476Z,137
2022-11-15T00:25:20.650Z,142
2022-11-15T00:26:29.820Z,126
2022-11-15T00:27:38.997Z,132
2022-11-15T00:28:48.171Z,132
2022-11-15T00:29:57.393Z,132
2022-11-15T00:31:06.516Z,133
2022-11-15T00:32:15.680Z,132
2022-11-15T00:33:24.903Z,134
2022-11-15T00:34:34.030Z,124
2022-11-15T00:35:42.238Z,129
2022-11-15T00:36:51.388Z,114
2022-11-15T00:38:00.577Z,113
2022-11-15T00:39:09.724Z,115
2022-11-15T00:40:18.907Z,115
2022-11-15T00:41:28.073Z,102
2022-11-15T00:42:37.281Z,122
2022-11-15T00:43:45.457Z,120
2022-11-15T00:44:53.636Z,122
2022-11-15T00:46:01.824Z,110
2022-11-15T00:47:10.030Z,72
2022-11-15T00:48:19.202Z,72
2022-11-15T00:49:28.367Z,72
2022-11-15T00:50:37.532Z,80
2022-11-15T00:51:46.700Z,86
2022-11-15T00:52:55.878Z,86
2022-11-15T00:54:05.164Z,87
2022-11-15T00:55:14.296Z,85
2022-11-15T00:56:23.403Z,87
2022-11-15T00:57:32.577Z,86
2022-11-15T00:58:41.737Z,86
2022-11-15T00:59:50.922Z,87
2022-11-15T01:01:00.093Z,85
2022-11-15T01:02:08.399Z,78
2022-11-15T01:03:17.440Z,111
2022-11-15T01:04:26.610Z,112
2022-11-15T01:05:35.799Z,107
2022-11-15T01:06:44.972Z,105
2022-11-15T01:07:54.201Z,101
2022-11-15T01:09:03.363Z,122
2022-11-15T01:10:11.511Z,114
2022-11-15T01:11:19.693Z,144
2022-11-15T01:12:28.871Z,118
2022-11-15T01:13:37.087Z,87
2022-11-15T01:14:45.297Z,148
2022-11-15T01:15:54.422Z,116
2022-11-15T01:17:02.617Z,130
2022-11-15T01:18:11.804Z,130
2022-11-15T01:19:20.959Z,130
2022-11-15T01:20:30.211Z,131
2022-11-15T01:21:39.303Z,116
2022-11-15T01:22:48.480Z,115
2022-11-15T01:23:57.795Z,113
2022-11-15T01:25:06.912Z,114
2022-11-15T01:26:16.048Z,114
2022-11-15T01:27:25.211Z,146
2022-11-15T01:28:34.369Z,145
2022-11-15T01:29:43.539Z,143
2022-11-15T01:30:52.669Z,141
2022-11-15T01:32:00.869Z,141
2022-11-15T01:33:10.095Z,143
2022-11-15T01:34:19.528Z,130
2022-11-15T01:35:28.383Z,128
2022-11-15T01:36:37.707Z,112
2022-11-15T01:37:45.757Z,112
2022-11-15T01:38:53.938Z,111
2022-11-15T01:40:02.130Z,112
2022-11-15T01:41:10.318Z,112
2022-11-15T01:42:19.570Z,117
2022-11-15T01:43:28.671Z,124
2022-11-15T01:44:37.901Z,118
2022-11-15T01:45:47.018Z,117
2022-11-15T01:46:56.191Z,99
2022-11-15T01:48:05.365Z,115
2022-11-15T01:49:14.538Z,114
2022-11-15T01:50:23.692Z,98
2022-11-15T01:51:32.877Z,113
2022-11-15T01:52:42.055Z,112
2022-11-15T01:53:51.219Z,105
2022-11-15T01:55:00.394Z,105
2022-11-15T01:56:08.573Z,105
2022-11-15T01:57:17.763Z,105
2022-11-15T01:58:26.944Z,98
2022-11-15T01:59:36.107Z,79
2022-11-15T02:00:45.270Z,79
2022-11-15T02:01:54.463Z,79
2022-11-15T02:03:03.613Z,110
2022-11-15T02:04:11.816Z,110
2022-11-15T02:05:19.993Z,112
2022-11-15T02:06:29.181Z,110
2022-11-15T02:07:38.354Z,130
2022-11-15T02:08:46.535Z,131
2022-11-15T02:09:54.725Z,130
2022-11-15T02:11:03.900Z,130
2022-11-15T02:12:13.079Z,131
2022-11-15T02:13:22.238Z,120
2022-11-15T02:14:31.412Z,98
2022-11-15T02:15:40.595Z,97
2022-11-15T02:16:49.761Z,98
2022-11-15T02:17:58.933Z,110
2022-11-15T02:19:08.176Z,121
2022-11-15T02:20:17.297Z,123
2022-11-15T02:22:35.615Z,112
2022-11-15T02:23:44.810Z,117
2022-11-15T02:24:53.007Z,150
2022-11-15T02:26:02.209Z,158
2022-11-15T02:27:11.323Z,125
2022-11-15T02:28:20.503Z,132
2022-11-15T02:29:29.674Z,122
2022-11-15T02:30:38.846Z,121
2022-11-15T02:31:48.019Z,107
2022-11-15T02:32:57.177Z,115
2022-11-15T02:34:05.429Z,125
2022-11-15T02:35:13.582Z,115
2022-11-15T02:36:21.766Z,115
2022-11-15T02:37:30.019Z,144
2022-11-15T02:38:39.127Z,108
2022-11-15T02:39:48.305Z,141
2022-11-15T02:40:57.491Z,134
2022-11-15T02:42:06.645Z,129
2022-11-15T02:43:15.818Z,136
2022-11-15T02:44:25.043Z,136
2022-11-15T02:45:34.167Z,152
2022-11-15T02:46:43.399Z,121
2022-11-15T02:47:52.504Z,158
2022-11-15T02:49:01.678Z,145
2022-11-15T02:50:10.845Z,138
2022-11-15T02:51:20.100Z,151
2022-11-15T02:52:28.303Z,144
2022-11-15T02:53:37.406Z,134
2022-11-15T02:54:46.624Z,137
2022-11-15T02:55:55.725Z,137
2022-11-15T02:57:04.899Z,150
2022-11-15T02:58:14.070Z,151
2022-11-15T02:59:23.311Z,149
2022-11-15T03:00:31.445Z,149
2022-11-15T03:01:39.628Z,133
2022-11-15T03:02:47.821Z,141
2022-11-15T03:03:56.075Z,140
2022-11-15T03:05:05.197Z,139
2022-11-15T03:06:14.356Z,157
2022-11-15T03:07:23.524Z,132
2022-11-15T03:08:32.697Z,133
2022-11-15T03:09:41.983Z,143
2022-11-15T03:10:51.051Z,129
2022-11-15T03:12:00.216Z,136
2022-11-15T03:13:09.435Z,148
2022-11-15T03:14:18.633Z,161
2022-11-15T03:15:27.730Z,118
2022-11-15T03:16:36.905Z,130
2022-11-15T03:17:46.080Z,145
2022-11-15T03:18:54.385Z,117
2022-11-15T03:20:03.535Z,136
2022-11-15T03:21:12.625Z,111
2022-11-15T03:22:21.786Z,140
2022-11-15T03:23:30.954Z,145
2022-11-15T03:24:40.136Z,129
2022-11-15T03:25:49.301Z,145
2022-11-15T03:26:57.500Z,122
2022-11-15T03:28:05.749Z,139
2022-11-15T03:29:14.852Z,139
2022-11-15T03:30:24.032Z,163
2022-11-15T03:31:32.231Z,141
2022-11-15T03:32:40.555Z,157
2022-11-15T03:33:49.581Z,118
2022-11-15T03:34:58.794Z,143
2022-11-15T03:36:07.922Z,135
2022-11-15T03:37:17.261Z,140
2022-11-15T03:38:26.425Z,139
2022-11-15T03:39:35.443Z,156
2022-11-15T03:40:44.643Z,164
2022-11-15T03:41:53.795Z,160
2022-11-15T03:43:02.958Z,152
2022-11-15T03:44:12.126Z,182
2022-11-15T03:45:21.317Z,127
2022-11-15T03:46:30.540Z,151
2022-11-15T03:47:38.665Z,136
2022-11-15T03:48:47.854Z,128
2022-11-15T03:49:57.050Z,157
2022-11-15T03:51:06.192Z,160
2022-11-15T03:52:15.363Z,114
2022-11-15T03:53:24.560Z,150
2022-11-15T03:54:33.706Z,137
2022-11-15T03:55:41.922Z,107
2022-11-15T03:56:50.184Z,137
2022-11-15T03:57:58.382Z,140
2022-11-15T03:59:06.461Z,126
2022-11-15T04:00:15.650Z,101
2022-11-15T04:01:24.819Z,143
2022-11-15T04:02:33.989Z,134
2022-11-15T04:03:43.152Z,146
2022-11-15T04:04:52.330Z,140
2022-11-15T04:06:01.508Z,158
2022-11-15T04:07:10.683Z,155
2022-11-15T04:08:19.892Z,130
2022-11-15T04:09:29.050Z,141
2022-11-15T04:10:38.189Z,170
2022-11-15T04:11:47.364Z,134
2022-11-15T04:12:56.544Z,138
2022-11-15T04:14:04.731Z,151
2022-11-15T04:15:13.928Z,126
2022-11-15T04:16:23.099Z,123
2022-11-15T04:17:32.242Z,128
2022-11-15T04:18:41.421Z,100
2022-11-15T04:19:50.585Z,139
2022-11-15T04:20:59.767Z,126
2022-11-15T04:22:07.980Z,170
2022-11-15T04:23:16.155Z,165
2022-11-15T04:24:24.350Z,136
2022-11-15T04:25:32.542Z,151
2022-11-15T04:26:41.711Z,152
2022-11-15T04:27:50.885Z,142
2022-11-15T04:29:00.117Z,157
2022-11-15T04:30:09.225Z,170
2022-11-15T04:31:18.420Z,144
2022-11-15T04:32:27.564Z,129
2022-11-15T04:33:36.737Z,138
2022-11-15T04:34:45.906Z,141
2022-11-15T04:35:55.088Z,135
2022-11-15T04:37:04.264Z,151
2022-11-15T04:38:13.430Z,154
2022-11-15T04:39:22.623Z,151
2022-11-15T04:40:30.791Z,152
2022-11-15T04:41:39.963Z,148
2022-11-15T04:42:49.138Z,148
2022-11-15T04:43:58.315Z,142
2022-11-15T04:45:07.480Z,170
2022-11-15T04:46:16.673Z,125
2022-11-15T04:47:25.836Z,129
2022-11-15T04:48:34.120Z,166
2022-11-15T04:49:42.339Z,159
2022-11-15T04:50:51.434Z,164
2022-11-15T04:52:00.730Z,134
2022-11-15T04:53:09.729Z,116
2022-11-15T04:54:17.927Z,124
2022-11-15T04:55:26.200Z,131
2022-11-15T04:56:35.278Z,129
2022-11-15T04:57:44.556Z,117
2022-11-15T04:58:53.670Z,122
2022-11-15T05:00:02.801Z,138
2022-11-15T05:01:12.000Z,142
2022-11-15T05:02:21.176Z,127
2022-11-15T05:03:30.329Z,126
2022-11-15T05:04:39.546Z,127
2022-11-15T05:05:48.668Z,127
2022-11-15T05:06:57.856Z,127
2022-11-15T05:08:07.140Z,127
2022-11-15T05:09:16.312Z,135
2022-11-15T05:10:25.527Z,132
2022-11-15T05:11:34.705Z,138
2022-11-15T05:12:43.830Z,145
2022-11-15T05:13:53.003Z,145
2022-11-15T05:15:02.170Z,149
2022-11-15T05:16:11.360Z,129
2022-11-15T05:17:20.520Z,136
2022-11-15T05:18:28.713Z,138
2022-11-15T05:19:36.895Z,140
2022-11-15T05:20:45.106Z,157
2022-11-15T05:21:53.371Z,142
2022-11-15T05:23:02.453Z,131
2022-11-15T05:24:11.629Z,166
2022-11-15T05:25:20.802Z,137
2022-11-15T05:26:30.045Z,145
2022-11-15T05:27:39.144Z,162
2022-11-15T05:28:48.325Z,161
2022-11-15T05:29:57.515Z,151
2022-11-15T05:31:06.670Z,125
2022-11-15T05:32:15.842Z,120
2022-11-15T05:33:25.008Z,133
2022-11-15T05:34:34.185Z,124
2022-11-15T05:36:52.535Z,131
2022-11-15T05:38:00.731Z,132
2022-11-15T05:39:09.892Z,137
2022-11-15T05:40:19.072Z,142
2022-11-15T05:41:28.229Z,127
2022-11-15T05:42:37.409Z,146
2022-11-15T05:43:46.604Z,143
2022-11-15T05:44:55.813Z,116
2022-11-15T05:46:04.078Z,115
2022-11-15T05:47:12.195Z,130
2022-11-15T05:48:21.304Z,106
2022-11-15T05:49:30.602Z,136
2022-11-15T05:50:38.747Z,115
2022-11-15T05:51:46.874Z,126
2022-11-15T05:52:56.048Z,158
2022-11-15T05:54:05.204Z,116
2022-11-15T05:55:14.381Z,108
2022-11-15T05:56:23.639Z,108
2022-11-15T05:57:32.738Z,121
2022-11-15T05:58:41.976Z,112
2022-11-15T05:59:51.072Z,111
2022-11-15T06:01:00.399Z,146
2022-11-15T06:02:09.426Z,145
2022-11-15T06:03:18.663Z,127
2022-11-15T06:04:27.952Z,139
2022-11-15T06:05:36.936Z,131
2022-11-15T06:06:45.266Z,140
2022-11-15T06:07:54.462Z,134
2022-11-15T06:09:03.501Z,114
2022-11-15T06:10:12.634Z,115
2022-11-15T06:11:21.883Z,97
2022-11-15T06:12:30.988Z,128
2022-11-15T06:13:40.181Z,111
2022-11-15T06:14:48.404Z,114
2022-11-15T06:15:56.549Z,145
2022-11-15T06:17:04.810Z,146
2022-11-15T06:18:12.935Z,146
2022-11-15T06:19:22.091Z,141
2022-11-15T06:20:31.342Z,142
2022-11-15T06:21:40.490Z,153
2022-11-15T06:23:58.785Z,140
2022-11-15T06:25:08.078Z,133
2022-11-15T06:26:17.124Z,148
2022-11-15T06:27:26.343Z,108
2022-11-15T06:28:35.564Z,129
2022-11-15T06:29:44.701Z,130
2022-11-15T06:30:53.899Z,143
2022-11-15T06:32:03.024Z,121
2022-11-15T06:33:11.216Z,112
2022-11-15T06:34:20.400Z,134
2022-11-15T06:35:29.628Z,142
2022-11-15T06:36:38.775Z,143
2022-11-15T06:37:47.954Z,144
2022-11-15T06:38:57.059Z,146
2022-11-15T06:40:06.287Z,138
2022-11-15T06:42:24.676Z,147
2022-11-15T06:43:32.762Z,134
2022-11-15T06:44:40.947Z,130
2022-11-15T06:45:50.136Z,137
2022-11-15T06:46:58.373Z,127
2022-11-15T06:48:06.608Z,143
2022-11-15T06:49:15.727Z,151
2022-11-15T06:50:24.865Z,142
2022-11-15T06:51:34.130Z,135
2022-11-15T06:52:43.225Z,140
2022-11-15T06:53:52.516Z,128
2022-11-15T06:55:01.549Z,122
2022-11-15T06:56:10.773Z,129
2022-11-15T06:57:19.953Z,139
2022-11-15T06:58:29.151Z,140
2022-11-15T06:59:38.229Z,135
2022-11-15T07:00:47.476Z,130
2022-11-15T07:01:56.699Z,138
2022-11-15T07:03:04.815Z,112
2022-11-15T07:04:13.933Z,144
2022-11-15T07:05:23.116Z,141
2022-11-15T07:06:32.374Z,146
2022-11-15T07:07:41.503Z,138
2022-11-15T07:08:50.635Z,143
2022-11-15T07:09:59.852Z,152
2022-11-15T07:11:08.041Z,129
2022-11-15T07:12:16.195Z,143
2022-11-15T07:13:24.375Z,126
2022-11-15T07:14:32.660Z,133
2022-11-15T07:15:41.802Z,148
2022-11-15T07:16:50.972Z,156
2022-11-15T07:18:00.144Z,146
2022-11-15T07:19:09.302Z,133
2022-11-15T07:20:18.445Z,145
2022-11-15T07:21:27.602Z,152
2022-11-15T07:22:36.856Z,147
2022-11-15T07:23:45.988Z,142
2022-11-15T07:24:55.174Z,135
2022-11-15T07:26:04.301Z,148
2022-11-15T07:27:13.486Z,180
2022-11-15T07:28:22.638Z,161
2022-11-15T07:29:30.834Z,140
2022-11-15T07:30:39.988Z,158
2022-11-15T07:31:49.182Z,171
2022-11-15T07:32:58.380Z,125
2022-11-15T07:34:07.521Z,159
2022-11-15T07:35:16.689Z,151
2022-11-15T07:36:25.864Z,174
2022-11-15T07:37:34.077Z,160
2022-11-15T07:38:42.322Z,150
2022-11-15T07:39:51.412Z,147
2022-11-15T07:41:00.583Z,168
2022-11-15T07:42:09.750Z,133
2022-11-15T07:43:18.918Z,148
2022-11-15T07:44:28.098Z,132
2022-11-15T07:45:37.349Z,155
2022-11-15T07:46:46.438Z,141
2022-11-15T07:47:55.646Z,135
2022-11-15T07:49:04.921Z,122
2022-11-15T07:50:13.978Z,177
2022-11-15T07:51:23.206Z,166
2022-11-15T07:52:32.343Z,171
2022-11-15T07:53:40.516Z,168
2022-11-15T07:54:49.655Z,140
2022-11-15T07:55:58.957Z,146
2022-11-15T07:57:08.010Z,145
2022-11-15T07:58:17.178Z,161
2022-11-15T07:59:26.449Z,174
2022-11-15T08:00:35.519Z,141
2022-11-15T08:01:43.806Z,171
2022-11-15T08:02:51.954Z,163
2022-11-15T08:04:00.208Z,172
2022-11-15T08:05:08.369Z,143
2022-11-15T08:06:17.489Z,151
2022-11-15T08:07:26.654Z,165
2022-11-15T08:08:35.952Z,172
2022-11-15T08:09:44.970Z,180
2022-11-15T08:10:54.141Z,170
2022-11-15T08:12:03.393Z,156
2022-11-15T08:13:12.521Z,154
2022-11-15T08:14:21.666Z,134
2022-11-15T08:15:30.836Z,157
2022-11-15T08:16:40.011Z,120
2022-11-15T08:17:49.231Z,160
2022-11-15T08:18:58.348Z,145
2022-11-15T08:20:06.544Z,140
2022-11-15T08:21:15.787Z,142
2022-11-15T08:22:24.951Z,139
2022-11-15T08:23:34.103Z,127
2022-11-15T08:24:43.227Z,178
2022-11-15T08:25:52.409Z,126
2022-11-15T08:27:01.607Z,152
2022-11-15T08:28:09.772Z,140
2022-11-15T08:29:17.948Z,151
2022-11-15T08:30:26.246Z,189
2022-11-15T08:31:34.326Z,158
2022-11-15T08:32:43.521Z,170
2022-11-15T08:33:52.789Z,159
2022-11-15T08:35:01.869Z,152
2022-11-15T08:36:11.235Z,191
2022-11-15T08:37:20.195Z,139
2022-11-15T08:38:29.428Z,144
2022-11-15T08:39:38.550Z,125
2022-11-15T08:40:47.774Z,174
2022-11-15T08:41:56.970Z,131
2022-11-15T08:43:06.075Z,155
2022-11-15T08:44:15.302Z,125
2022-11-15T08:45:24.401Z,141
2022-11-15T08:46:32.597Z,159
2022-11-15T08:47:41.814Z,155
2022-11-15T08:48:51.091Z,176
2022-11-15T08:50:00.143Z,175
2022-11-15T08:51:09.365Z,135
2022-11-15T08:52:18.536Z,178
2022-11-15T08:53:27.667Z,166
2022-11-15T08:54:36.987Z,166
2022-11-15T08:55:46.086Z,187
2022-11-15T08:56:55.204Z,180
2022-11-15T08:58:04.327Z,181
2022-11-15T08:59:12.570Z,141
2022-11-15T09:00:21.817Z,155
2022-11-15T09:01:30.853Z,143
2022-11-15T09:02:39.143Z,120
2022-11-15T09:03:47.232Z,149
2022-11-15T09:04:56.513Z,158
2022-11-15T09:06:05.674Z,168
2022-11-15T09:07:13.870Z,171
2022-11-15T09:08:21.966Z,133
2022-11-15T09:09:31.222Z,157
2022-11-15T09:10:40.457Z,207
2022-11-15T09:11:49.653Z,148
2022-11-15T09:12:58.799Z,163
2022-11-15T09:14:07.821Z,194
2022-11-15T09:15:17.136Z,163
2022-11-15T09:16:26.304Z,133
2022-11-15T09:17:35.342Z,136
2022-11-15T09:18:44.676Z,157
2022-11-15T09:19:53.965Z,175
2022-11-15T09:21:02.992Z,159
2022-11-15T09:22:12.196Z,140
2022-11-15T09:23:20.354Z,195
2022-11-15T09:24:29.558Z,175
2022-11-15T09:25:38.703Z,186
2022-11-15T09:26:47.923Z,111
2022-11-15T09:27:57.153Z,174
2022-11-15T09:29:06.170Z,189
2022-11-15T09:30:15.410Z,168
2022-11-15T09:31:23.484Z,182
2022-11-15T09:32:32.768Z,144
2022-11-15T09:33:41.072Z,181
2022-11-15T09:35:59.320Z,227
2022-11-15T09:37:08.552Z,131
2022-11-15T09:38:16.711Z,190
2022-11-15T09:39:24.947Z,160
2022-11-15T09:40:34.093Z,186
2022-11-15T09:41:43.167Z,201
2022-11-15T09:42:52.452Z,135
2022-11-15T09:44:01.577Z,162
2022-11-15T09:45:10.780Z,206
2022-11-15T09:46:19.749Z,192
2022-11-15T09:47:28.921Z,130
2022-11-15T09:48:38.079Z,203
2022-11-15T09:49:47.466Z,148
2022-11-15T09:50:56.593Z,185
2022-11-15T09:52:05.811Z,193
2022-11-15T09:53:14.942Z,181
2022-11-15T09:54:23.147Z,174
2022-11-15T09:55:32.375Z,194
2022-11-15T09:56:41.431Z,128
2022-11-15T09:57:50.677Z,129
2022-11-15T09:58:59.774Z,193
2022-11-15T10:00:08.891Z,188
2022-11-15T10:01:18.052Z,129
2022-11-15T10:02:26.267Z,182
2022-11-15T10:03:34.518Z,155
2022-11-15T10:04:42.797Z,145
2022-11-15T10:05:50.959Z,193
2022-11-15T10:07:00.075Z,148
2022-11-15T10:08:09.196Z,158
2022-11-15T10:09:18.442Z,187
2022-11-15T10:10:27.606Z,159
2022-11-15T10:11:36.808Z,192
2022-11-15T10:12:45.967Z,157
2022-11-15T10:13:55.120Z,174
2022-11-15T10:15:04.255Z,167
2022-11-15T10:16:13.490Z,128
2022-11-15T10:17:22.646Z,145
2022-11-15T10:18:31.808Z,151
2022-11-15T10:19:40.878Z,157
2022-11-15T10:20:49.160Z,146
2022-11-15T10:21:58.299Z,185
2022-11-15T10:23:07.558Z,185
2022-11-15T10:24:16.627Z,175
2022-11-15T10:25:25.826Z,150
2022-11-15T10:26:34.959Z,205
2022-11-15T10:27:44.151Z,169
2022-11-15T10:28:52.420Z,181
2022-11-15T10:30:00.725Z,181
2022-11-15T10:31:09.773Z,102
2022-11-15T10:32:18.980Z,135
2022-11-15T10:33:28.108Z,152
2022-11-15T10:34:36.141Z,164
2022-11-15T10:35:44.330Z,190
2022-11-15T10:36:53.642Z,181
2022-11-15T10:38:02.788Z,149
2022-11-15T10:40:21.055Z,176
2022-11-15T10:41:30.308Z,143
2022-11-15T10:42:39.478Z,139
2022-11-15T10:43:48.564Z,162
2022-11-15T10:44:57.768Z,164
2022-11-15T10:46:06.951Z,212
2022-11-15T10:47:16.215Z,170
2022-11-15T10:48:25.219Z,166
2022-11-15T10:49:34.509Z,205
2022-11-15T10:50:42.726Z,188
2022-11-15T10:51:51.832Z,122
2022-11-15T10:53:01.089Z,156
2022-11-15T10:54:10.108Z,180
2022-11-15T10:55:19.348Z,144
2022-11-15T10:56:28.574Z,144
2022-11-15T10:57:37.661Z,200
2022-11-15T10:58:46.851Z,145
2022-11-15T10:59:55.100Z,175
2022-11-15T11:01:03.364Z,190
2022-11-15T11:02:12.376Z,170
2022-11-15T11:03:20.542Z,177
2022-11-15T11:04:28.728Z,234
2022-11-15T11:05:37.914Z,180
2022-11-15T11:06:47.154Z,141
2022-11-15T11:07:56.315Z,178
2022-11-15T11:09:05.591Z,167
2022-11-15T11:10:14.743Z,149
2022-11-15T11:11:23.923Z,188
2022-11-15T11:12:32.936Z,124
2022-11-15T11:13:42.247Z,182
2022-11-15T11:14:51.435Z,151
2022-11-15T11:16:00.493Z,146
2022-11-15T11:17:09.704Z,186
2022-11-15T11:18:18.916Z,185
2022-11-15T11:19:27.037Z,127
2022-11-15T11:20:36.188Z,157
2022-11-15T11:21:45.387Z,211
2022-11-15T11:22:54.602Z,189
2022-11-15T11:24:03.680Z,193
2022-11-15T11:25:12.835Z,196
2022-11-15T11:26:22.141Z,136
2022-11-15T11:27:30.325Z,174
2022-11-15T11:28:38.423Z,130
2022-11-15T11:29:47.622Z,187
2022-11-15T11:30:56.910Z,158
2022-11-15T11:32:05.958Z,166
2022-11-15T11:33:15.172Z,159
2022-11-15T11:34:24.246Z,157
2022-11-15T11:35:33.526Z,208
2022-11-15T11:36:42.597Z,184
2022-11-15T11:37:51.788Z,176
2022-11-15T11:39:01.076Z,149
2022-11-15T11:40:10.123Z,158
2022-11-15T11:41:19.288Z,195
2022-11-15T11:42:28.537Z,123
2022-11-15T11:43:36.708Z,166
2022-11-15T11:44:45.910Z,167
2022-11-15T11:45:55.054Z,159
2022-11-15T11:47:04.300Z,180
2022-11-15T11:48:13.411Z,148
2022-11-15T11:49:22.642Z,139
2022-11-15T11:50:31.864Z,174
2022-11-15T11:51:39.878Z,184
2022-11-15T11:52:48.131Z,158
2022-11-15T11:53:57.251Z,168
2022-11-15T11:55:05.550Z,201
2022-11-15T11:56:13.750Z,168
2022-11-15T11:57:22.799Z,136
2022-11-15T11:58:31.993Z,161
2022-11-15T11:59:41.177Z,175
2022-11-15T12:00:50.306Z,183
2022-11-15T12:01:59.618Z,189
2022-11-15T12:03:07.789Z,196
2022-11-15T12:04:15.856Z,181
2022-11-15T12:05:25.027Z,163
2022-11-15T12:06:34.338Z,191
2022-11-15T12:07:43.454Z,137
2022-11-15T12:08:52.661Z,177
2022-11-15T12:10:01.792Z,145
2022-11-15T12:11:10.993Z,130
2022-11-15T12:12:20.174Z,148
2022-11-15T12:13:29.307Z,171
2022-11-15T12:14:38.429Z,163
2022-11-15T12:15:47.728Z,154
2022-11-15T12:16:56.915Z,144
2022-11-15T12:18:06.124Z,163
2022-11-15T12:19:14.234Z,179
2022-11-15T12:20:23.326Z,147
2022-11-15T12:21:32.455Z,169
2022-11-15T12:22:41.623Z,102
2022-11-15T12:23:50.787Z,160
2022-11-15T12:25:00.030Z,185
2022-11-15T12:26:09.274Z,181
2022-11-15T12:27:17.443Z,176
2022-11-15T12:28:25.634Z,148
2022-11-15T12:29:34.879Z,171
2022-11-15T12:30:43.869Z,149
2022-11-15T12:31:52.133Z,168
2022-11-15T12:33:00.290Z,168
2022-11-15T12:34:09.446Z,113
2022-11-15T12:35:18.593Z,135
2022-11-15T12:36:27.792Z,135
2022-11-15T12:37:37.129Z,161
2022-11-15T12:38:46.331Z,147
2022-11-15T12:39:55.477Z,183
2022-11-15T12:41:04.624Z,121
2022-11-15T12:42:13.632Z,208
2022-11-15T12:43:22.802Z,150
2022-11-15T12:44:32.095Z,168
2022-11-15T12:45:41.185Z,160
2022-11-15T12:46:50.326Z,147
2022-11-15T12:47:58.504Z,139
2022-11-15T12:49:07.840Z,170
2022-11-15T12:50:16.103Z,157
2022-11-15T12:51:25.226Z,179
2022-11-15T12:52:34.363Z,159
2022-11-15T12:53:43.394Z,105
2022-11-15T12:54:52.552Z,197
2022-11-15T12:56:01.742Z,145
2022-11-15T12:57:10.896Z,161
2022-11-15T12:58:20.066Z,206
2022-11-15T12:59:29.241Z,175
2022-11-15T13:00:38.426Z,175
2022-11-15T13:01:46.619Z,129
2022-11-15T13:02:54.795Z,146
2022-11-15T13:04:03.978Z,112
2022-11-15T13:05:12.171Z,155
2022-11-15T13:06:20.353Z,135
2022-11-15T13:07:29.539Z,133
2022-11-15T13:08:38.701Z,196
2022-11-15T13:09:47.863Z,157
2022-11-15T13:10:57.044Z,215
2022-11-15T13:12:06.311Z,132
2022-11-15T13:13:15.545Z,161
2022-11-15T13:14:24.552Z,201
2022-11-15T13:15:33.735Z,162
2022-11-15T13:16:42.903Z,140
2022-11-15T13:17:52.104Z,136
2022-11-15T13:19:01.249Z,133
2022-11-15T13:20:10.419Z,133
2022-11-15T13:21:18.603Z,177
2022-11-15T13:22:27.780Z,192
2022-11-15T13:23:36.946Z,184
2022-11-15T13:24:46.121Z,168
2022-11-15T13:25:55.294Z,196
2022-11-15T13:27:04.636Z,171
2022-11-15T13:28:13.716Z,186
2022-11-15T13:29:21.837Z,181
2022-11-15T13:30:30.024Z,167
2022-11-15T13:31:38.291Z,168
2022-11-15T13:32:46.401Z,154
2022-11-15T13:33:55.572Z,129
2022-11-15T13:35:04.748Z,161
2022-11-15T13:36:13.924Z,177
2022-11-15T13:37:23.089Z,208
2022-11-15T13:38:32.263Z,167
2022-11-15T13:39:41.431Z,183
2022-11-15T13:40:50.610Z,147
2022-11-15T13:41:59.819Z,143
2022-11-15T13:43:08.959Z,158
2022-11-15T13:44:18.124Z,105
2022-11-15T13:45:27.299Z,183
2022-11-15T13:46:36.472Z,160
2022-11-15T13:47:44.647Z,163
2022-11-15T13:48:53.822Z,154
2022-11-15T13:50:03.003Z,144
2022-11-15T13:51:12.174Z,148
2022-11-15T13:52:21.346Z,146
2022-11-15T13:53:30.519Z,185
2022-11-15T13:54:39.866Z,141
2022-11-15T13:55:48.037Z,163
2022-11-15T13:56:56.271Z,139
2022-11-15T13:58:05.275Z,149
2022-11-15T13:59:14.417Z,163
2022-11-15T14:00:23.599Z,120
2022-11-15T14:01:32.755Z,158
2022-11-15T14:02:41.931Z,171
2022-11-15T14:03:51.107Z,141
2022-11-15T14:05:00.279Z,146
2022-11-15T14:06:09.449Z,178
2022-11-15T14:07:18.621Z,164
2022-11-15T14:08:27.990Z,125
2022-11-15T14:09:36.999Z,127
2022-11-15T14:10:46.144Z,130
2022-11-15T14:11:54.317Z,133
2022-11-15T14:13:03.495Z,140
2022-11-15T14:14:12.754Z,123
2022-11-15T14:15:21.830Z,118
2022-11-15T14:16:31.159Z,150
2022-11-15T14:17:40.312Z,153
2022-11-15T14:18:49.548Z,131
2022-11-15T14:19:57.551Z,126
2022-11-15T14:21:05.742Z,148
2022-11-15T14:22:13.939Z,112
2022-11-15T14:23:22.142Z,165
2022-11-15T14:24:31.302Z,163
2022-11-15T14:25:40.464Z,161
2022-11-15T14:26:49.641Z,105
2022-11-15T14:27:58.812Z,103
2022-11-15T14:29:07.982Z,157
2022-11-15T14:30:17.159Z,186
2022-11-15T14:31:26.337Z,146
2022-11-15T14:32:35.499Z,141
2022-11-15T14:33:44.700Z,150
2022-11-15T14:34:53.842Z,135
2022-11-15T14:36:03.041Z,156
2022-11-15T14:37:12.198Z,131
2022-11-15T14:38:20.392Z,146
2022-11-15T14:39:29.551Z,152
2022-11-15T14:40:38.717Z,128
2022-11-15T14:41:47.892Z,112
2022-11-15T14:42:57.074Z,122
2022-11-15T14:44:06.249Z,171
2022-11-15T14:45:15.415Z,140
2022-11-15T14:46:23.614Z,141
2022-11-15T14:47:32.784Z,139
2022-11-15T14:48:40.974Z,112
2022-11-15T14:49:49.162Z,136
2022-11-15T14:50:58.551Z,135
2022-11-15T14:52:07.663Z,143
2022-11-15T14:53:16.679Z,132
2022-11-15T14:54:25.860Z,121
2022-11-15T14:55:35.031Z,140
2022-11-15T14:56:44.193Z,145
2022-11-15T14:57:53.367Z,120
2022-11-15T14:59:02.544Z,122
2022-11-15T15:00:11.706Z,124
2022-11-15T15:01:20.886Z,128
2022-11-15T15:02:30.079Z,125
2022-11-15T15:03:39.230Z,120
2022-11-15T15:04:47.420Z,74
2022-11-15T15:05:56.665Z,75
2022-11-15T15:07:05.768Z,75
2022-11-15T15:08:14.932Z,75
2022-11-15T15:09:24.104Z,74
2022-11-15T15:10:33.273Z,81
2022-11-15T15:11:42.444Z,75
2022-11-15T15:12:50.650Z,76
2022-11-15T15:13:58.831Z,76
2022-11-15T15:15:07.023Z,76
2022-11-15T15:16:15.216Z,77
2022-11-15T15:17:24.384Z,77
2022-11-15T15:18:33.611Z,77
2022-11-15T15:19:42.734Z,77
2022-11-15T15:20:51.913Z,78
2022-11-15T15:22:01.068Z,89
2022-11-15T15:23:10.287Z,88
2022-11-15T15:24:19.554Z,88
2022-11-15T15:25:28.674Z,88
2022-11-15T15:26:37.830Z,88
2022-11-15T15:27:46.937Z,87
2022-11-15T15:28:56.134Z,89
2022-11-15T15:30:05.272Z,89
2022-11-15T15:31:13.473Z,89
2022-11-15T15:32:22.717Z,89
2022-11-15T15:33:31.818Z,88
2022-11-15T15:34:41.024Z,89
2022-11-15T15:35:50.160Z,87
2022-11-15T15:36:59.329Z,89
2022-11-15T15:38:08.530Z,88
2022-11-15T15:39:16.701Z,88
2022-11-15T15:40:24.903Z,88
2022-11-15T15:41:33.090Z,88
2022-11-15T15:42:41.370Z,88
2022-11-15T15:43:50.590Z,88
2022-11-15T15:44:59.721Z,88
2022-11-15T15:46:08.887Z,81
2022-11-15T15:47:17.975Z,85
2022-11-15T15:48:27.164Z,85
2022-11-15T15:49:36.302Z,84
2022-11-15T15:50:45.477Z,85
2022-11-15T15:51:54.642Z,85
2022-11-15T15:53:03.812Z,85
2022-11-15T15:55:22.156Z,85
2022-11-15T15:56:31.338Z,85
2022-11-15T15:57:39.519Z,85
2022-11-15T15:58:48.693Z,85
2022-11-15T15:59:57.864Z,85